sensor_id;sensor_type;location;lat;lon;timestamp;temperature;humidity
16102;DHT22;56411;52.964;10.540;2023-04-03T00:01:10;-0.60;99.90
16102;DHT22;56411;52.964;10.540;2023-04-03T00:03:37;-0.50;99.90
16102;DHT22;56411;52.964;10.540;2023-04-03T00:06:05;-0.50;99.90
16102;DHT22;56411;52.964;10.540;2023-04-03T00:08:34;-0.50;99.90
16102;DHT22;56411;52.964;10.540;2023-04-03T00:11:01;-0.60;99.90
16102;DHT22;56411;52.964;10.540;2023-04-03T00:13:29;-0.60;99.90
16102;DHT22;56411;52.964;10.540;2023-04-03T00:15:58;-0.70;99.90
16102;DHT22;56411;52.964;10.540;2023-04-03T00:18:25;-0.70;99.90
16102;DHT22;56411;52.964;10.540;2023-04-03T00:20:55;-0.80;99.90
16102;DHT22;56411;52.964;10.540;2023-04-03T00:23:25;-0.80;99.90
16102;DHT22;56411;52.964;10.540;2023-04-03T00:25:53;-0.80;99.90
16102;DHT22;56411;52.964;10.540;2023-04-03T00:28:22;-0.90;99.90
16102;DHT22;56411;52.964;10.540;2023-04-03T00:30:49;-0.80;99.90
16102;DHT22;56411;52.964;10.540;2023-04-03T00:33:18;-0.80;99.90
16102;DHT22;56411;52.964;10.540;2023-04-03T00:35:47;-0.80;99.90
16102;DHT22;56411;52.964;10.540;2023-04-03T00:38:15;-0.80;99.90
16102;DHT22;56411;52.964;10.540;2023-04-03T00:40:43;-0.80;99.90
16102;DHT22;56411;52.964;10.540;2023-04-03T00:43:14;-0.90;99.90
16102;DHT22;56411;52.964;10.540;2023-04-03T00:45:42;-0.90;99.90
16102;DHT22;56411;52.964;10.540;2023-04-03T00:48:13;-1.00;99.90
16102;DHT22;56411;52.964;10.540;2023-04-03T00:50:45;-1.00;99.90
16102;DHT22;56411;52.964;10.540;2023-04-03T00:53:16;-1.10;99.90
16102;DHT22;56411;52.964;10.540;2023-04-03T00:55:47;-1.10;99.90
16102;DHT22;56411;52.964;10.540;2023-04-03T00:58:18;-1.00;99.90
16102;DHT22;56411;52.964;10.540;2023-04-03T01:00:50;-1.10;99.90
16102;DHT22;56411;52.964;10.540;2023-04-03T01:03:23;-1.10;99.90
16102;DHT22;56411;52.964;10.540;2023-04-03T01:05:54;-1.20;99.90
16102;DHT22;56411;52.964;10.540;2023-04-03T01:08:21;-1.20;99.90
16102;DHT22;56411;52.964;10.540;2023-04-03T01:10:49;-1.20;99.90
16102;DHT22;56411;52.964;10.540;2023-04-03T01:13:21;-1.20;99.90
16102;DHT22;56411;52.964;10.540;2023-04-03T01:15:54;-1.10;99.90
16102;DHT22;56411;52.964;10.540;2023-04-03T01:18:23;-1.10;99.90
16102;DHT22;56411;52.964;10.540;2023-04-03T01:21:29;-1.20;99.90
16102;DHT22;56411;52.964;10.540;2023-04-03T01:24:16;-1.10;99.90
16102;DHT22;56411;52.964;10.540;2023-04-03T01:26:48;-1.20;99.90
16102;DHT22;56411;52.964;10.540;2023-04-03T01:29:15;-1.20;99.90
16102;DHT22;56411;52.964;10.540;2023-04-03T01:31:53;-1.30;99.90
16102;DHT22;56411;52.964;10.540;2023-04-03T01:34:21;-1.30;99.90
16102;DHT22;56411;52.964;10.540;2023-04-03T01:36:49;-1.30;99.90
16102;DHT22;56411;52.964;10.540;2023-04-03T01:39:17;-1.30;99.90
16102;DHT22;56411;52.964;10.540;2023-04-03T01:41:44;-1.40;99.90
16102;DHT22;56411;52.964;10.540;2023-04-03T01:44:12;-1.40;99.90
16102;DHT22;56411;52.964;10.540;2023-04-03T01:46:39;-1.50;99.90
16102;DHT22;56411;52.964;10.540;2023-04-03T01:49:09;-1.60;99.90
16102;DHT22;56411;52.964;10.540;2023-04-03T01:51:36;-1.60;99.90
16102;DHT22;56411;52.964;10.540;2023-04-03T01:54:04;-1.60;99.90
16102;DHT22;56411;52.964;10.540;2023-04-03T01:56:31;-1.70;99.90
16102;DHT22;56411;52.964;10.540;2023-04-03T01:58:58;-1.80;99.90
16102;DHT22;56411;52.964;10.540;2023-04-03T02:01:25;-1.80;99.90
16102;DHT22;56411;52.964;10.540;2023-04-03T02:03:52;-1.80;99.90
16102;DHT22;56411;52.964;10.540;2023-04-03T02:06:21;-1.80;99.90
16102;DHT22;56411;52.964;10.540;2023-04-03T02:08:49;-1.90;99.90
16102;DHT22;56411;52.964;10.540;2023-04-03T02:11:16;-2.00;99.90
16102;DHT22;56411;52.964;10.540;2023-04-03T02:13:43;-2.00;99.90
16102;DHT22;56411;52.964;10.540;2023-04-03T02:16:10;-2.00;99.90
16102;DHT22;56411;52.964;10.540;2023-04-03T02:18:38;-2.10;99.90
16102;DHT22;56411;52.964;10.540;2023-04-03T02:21:05;-2.10;99.90
16102;DHT22;56411;52.964;10.540;2023-04-03T02:23:34;-2.20;99.90
16102;DHT22;56411;52.964;10.540;2023-04-03T02:26:07;-2.20;99.90
16102;DHT22;56411;52.964;10.540;2023-04-03T02:28:34;-2.10;99.90
16102;DHT22;56411;52.964;10.540;2023-04-03T02:31:02;-2.10;99.90
16102;DHT22;56411;52.964;10.540;2023-04-03T02:33:30;-2.20;99.90
16102;DHT22;56411;52.964;10.540;2023-04-03T02:35:57;-2.20;99.90
16102;DHT22;56411;52.964;10.540;2023-04-03T02:38:24;-2.20;99.90
16102;DHT22;56411;52.964;10.540;2023-04-03T02:40:53;-2.10;99.90
16102;DHT22;56411;52.964;10.540;2023-04-03T02:43:26;-2.00;99.90
16102;DHT22;56411;52.964;10.540;2023-04-03T02:45:53;-2.10;99.90
16102;DHT22;56411;52.964;10.540;2023-04-03T02:48:20;-2.10;99.90
16102;DHT22;56411;52.964;10.540;2023-04-03T02:50:47;-2.10;99.90
16102;DHT22;56411;52.964;10.540;2023-04-03T02:53:15;-2.10;99.90
16102;DHT22;56411;52.964;10.540;2023-04-03T02:55:42;-2.10;99.90
16102;DHT22;56411;52.964;10.540;2023-04-03T02:58:12;-2.10;99.90
16102;DHT22;56411;52.964;10.540;2023-04-03T03:00:40;-2.00;99.90
16102;DHT22;56411;52.964;10.540;2023-04-03T03:03:07;-2.00;99.90
16102;DHT22;56411;52.964;10.540;2023-04-03T03:05:34;-2.10;99.90
16102;DHT22;56411;52.964;10.540;2023-04-03T03:08:01;-2.10;99.90
16102;DHT22;56411;52.964;10.540;2023-04-03T03:10:28;-2.00;99.90
16102;DHT22;56411;52.964;10.540;2023-04-03T03:12:55;-1.90;99.90
16102;DHT22;56411;52.964;10.540;2023-04-03T03:15:24;-1.80;99.90
16102;DHT22;56411;52.964;10.540;2023-04-03T03:17:55;-1.80;99.90
16102;DHT22;56411;52.964;10.540;2023-04-03T03:20:22;-1.80;99.90
16102;DHT22;56411;52.964;10.540;2023-04-03T03:22:49;-1.90;99.90
16102;DHT22;56411;52.964;10.540;2023-04-03T03:25:16;-2.00;99.90
16102;DHT22;56411;52.964;10.540;2023-04-03T03:27:46;-2.10;99.90
16102;DHT22;56411;52.964;10.540;2023-04-03T03:30:13;-2.20;99.90
16102;DHT22;56411;52.964;10.540;2023-04-03T03:32:42;-2.20;99.90
16102;DHT22;56411;52.964;10.540;2023-04-03T03:35:09;-2.20;99.90
16102;DHT22;56411;52.964;10.540;2023-04-03T03:37:36;-2.20;99.90
16102;DHT22;56411;52.964;10.540;2023-04-03T03:40:04;-2.10;99.90
16102;DHT22;56411;52.964;10.540;2023-04-03T03:42:31;-2.00;99.90
16102;DHT22;56411;52.964;10.540;2023-04-03T03:44:58;-2.00;99.90
16102;DHT22;56411;52.964;10.540;2023-04-03T03:47:25;-2.00;99.90
16102;DHT22;56411;52.964;10.540;2023-04-03T03:49:54;-2.00;99.90
16102;DHT22;56411;52.964;10.540;2023-04-03T03:52:21;-2.00;99.90
16102;DHT22;56411;52.964;10.540;2023-04-03T03:54:51;-2.00;99.90
16102;DHT22;56411;52.964;10.540;2023-04-03T03:57:18;-1.90;99.90
16102;DHT22;56411;52.964;10.540;2023-04-03T03:59:46;-1.80;99.90
16102;DHT22;56411;52.964;10.540;2023-04-03T04:02:14;-1.90;99.90
16102;DHT22;56411;52.964;10.540;2023-04-03T04:04:41;-1.80;99.90
16102;DHT22;56411;52.964;10.540;2023-04-03T04:07:10;-1.90;99.90
16102;DHT22;56411;52.964;10.540;2023-04-03T04:09:38;-1.90;99.90
16102;DHT22;56411;52.964;10.540;2023-04-03T04:12:05;-1.90;99.90
16102;DHT22;56411;52.964;10.540;2023-04-03T04:14:32;-1.90;99.90
16102;DHT22;56411;52.964;10.540;2023-04-03T04:16:59;-1.90;99.90
16102;DHT22;56411;52.964;10.540;2023-04-03T04:19:27;-1.90;99.90
16102;DHT22;56411;52.964;10.540;2023-04-03T04:25:07;-2.00;99.90
16102;DHT22;56411;52.964;10.540;2023-04-03T04:27:35;-2.10;99.90
16102;DHT22;56411;52.964;10.540;2023-04-03T04:30:03;-2.10;99.90
16102;DHT22;56411;52.964;10.540;2023-04-03T04:32:34;-2.10;99.90
16102;DHT22;56411;52.964;10.540;2023-04-03T04:35:03;-2.10;99.90
16102;DHT22;56411;52.964;10.540;2023-04-03T04:37:31;-2.20;99.90
16102;DHT22;56411;52.964;10.540;2023-04-03T04:39:58;-2.10;99.90
16102;DHT22;56411;52.964;10.540;2023-04-03T04:42:27;-2.10;99.90
16102;DHT22;56411;52.964;10.540;2023-04-03T04:44:55;-2.20;99.90
16102;DHT22;56411;52.964;10.540;2023-04-03T04:47:22;-2.10;99.90
16102;DHT22;56411;52.964;10.540;2023-04-03T04:49:50;-2.00;99.90
16102;DHT22;56411;52.964;10.540;2023-04-03T04:52:17;-2.00;99.90
16102;DHT22;56411;52.964;10.540;2023-04-03T04:54:45;-2.00;99.90
16102;DHT22;56411;52.964;10.540;2023-04-03T04:57:12;-2.00;99.90
16102;DHT22;56411;52.964;10.540;2023-04-03T04:59:41;-2.00;99.90
16102;DHT22;56411;52.964;10.540;2023-04-03T05:02:09;-2.00;99.90
16102;DHT22;56411;52.964;10.540;2023-04-03T05:04:36;-2.00;99.90
16102;DHT22;56411;52.964;10.540;2023-04-03T05:07:04;-2.00;99.90
16102;DHT22;56411;52.964;10.540;2023-04-03T05:09:31;-2.00;99.90
16102;DHT22;56411;52.964;10.540;2023-04-03T05:11:58;-2.10;99.90
16102;DHT22;56411;52.964;10.540;2023-04-03T05:14:26;-2.10;99.90
16102;DHT22;56411;52.964;10.540;2023-04-03T05:16:54;-2.10;99.90
16102;DHT22;56411;52.964;10.540;2023-04-03T05:19:22;-2.10;99.90
16102;DHT22;56411;52.964;10.540;2023-04-03T05:21:49;-2.00;99.90
16102;DHT22;56411;52.964;10.540;2023-04-03T05:24:17;-1.90;99.90
16102;DHT22;56411;52.964;10.540;2023-04-03T05:26:44;-1.90;99.90
16102;DHT22;56411;52.964;10.540;2023-04-03T05:29:11;-1.90;99.90
16102;DHT22;56411;52.964;10.540;2023-04-03T05:31:39;-2.00;99.90
16102;DHT22;56411;52.964;10.540;2023-04-03T05:34:08;-1.90;99.90
16102;DHT22;56411;52.964;10.540;2023-04-03T05:36:35;-1.90;99.90
16102;DHT22;56411;52.964;10.540;2023-04-03T05:39:02;-1.80;99.90
16102;DHT22;56411;52.964;10.540;2023-04-03T05:41:30;-1.70;99.90
16102;DHT22;56411;52.964;10.540;2023-04-03T05:43:57;-1.70;99.90
16102;DHT22;56411;52.964;10.540;2023-04-03T05:46:24;-1.60;99.90
16102;DHT22;56411;52.964;10.540;2023-04-03T05:48:52;-1.50;99.90
16102;DHT22;56411;52.964;10.540;2023-04-03T05:51:23;-1.40;99.90
16102;DHT22;56411;52.964;10.540;2023-04-03T05:53:56;-1.30;99.90
16102;DHT22;56411;52.964;10.540;2023-04-03T05:56:26;-1.30;99.90
16102;DHT22;56411;52.964;10.540;2023-04-03T05:58:54;-1.30;99.90
16102;DHT22;56411;52.964;10.540;2023-04-03T06:01:21;-1.30;99.90
16102;DHT22;56411;52.964;10.540;2023-04-03T06:03:49;-1.20;99.90
16102;DHT22;56411;52.964;10.540;2023-04-03T06:06:16;-1.20;99.90
16102;DHT22;56411;52.964;10.540;2023-04-03T06:08:45;-1.20;99.90
16102;DHT22;56411;52.964;10.540;2023-04-03T06:11:12;-1.10;99.90
16102;DHT22;56411;52.964;10.540;2023-04-03T06:13:40;-1.00;99.90
16102;DHT22;56411;52.964;10.540;2023-04-03T06:16:09;-1.00;99.90
16102;DHT22;56411;52.964;10.540;2023-04-03T06:18:39;-0.90;99.90
16102;DHT22;56411;52.964;10.540;2023-04-03T06:21:07;-0.80;99.90
16102;DHT22;56411;52.964;10.540;2023-04-03T06:23:34;-0.70;99.90
16102;DHT22;56411;52.964;10.540;2023-04-03T06:29:05;-0.50;99.90
16102;DHT22;56411;52.964;10.540;2023-04-03T06:31:32;-0.30;99.90
16102;DHT22;56411;52.964;10.540;2023-04-03T06:34:00;-0.20;99.90
16102;DHT22;56411;52.964;10.540;2023-04-03T06:36:27;0.00;99.90
16102;DHT22;56411;52.964;10.540;2023-04-03T06:38:55;0.10;99.90
16102;DHT22;56411;52.964;10.540;2023-04-03T06:41:23;0.20;99.90
16102;DHT22;56411;52.964;10.540;2023-04-03T06:43:51;0.40;99.90
16102;DHT22;56411;52.964;10.540;2023-04-03T06:46:22;0.50;99.90
16102;DHT22;56411;52.964;10.540;2023-04-03T06:48:49;0.60;99.90
16102;DHT22;56411;52.964;10.540;2023-04-03T06:51:19;0.70;99.90
16102;DHT22;56411;52.964;10.540;2023-04-03T06:53:46;0.90;99.90
16102;DHT22;56411;52.964;10.540;2023-04-03T06:56:14;1.00;99.90
16102;DHT22;56411;52.964;10.540;2023-04-03T06:58:42;1.10;99.90
16102;DHT22;56411;52.964;10.540;2023-04-03T07:01:11;1.20;99.90
16102;DHT22;56411;52.964;10.540;2023-04-03T07:03:41;1.20;99.90
16102;DHT22;56411;52.964;10.540;2023-04-03T07:06:11;1.30;99.90
16102;DHT22;56411;52.964;10.540;2023-04-03T07:08:39;1.40;99.90
16102;DHT22;56411;52.964;10.540;2023-04-03T07:11:07;1.50;99.90
16102;DHT22;56411;52.964;10.540;2023-04-03T07:13:35;1.60;99.90
16102;DHT22;56411;52.964;10.540;2023-04-03T07:16:03;1.70;99.90
16102;DHT22;56411;52.964;10.540;2023-04-03T07:18:32;1.80;99.90
16102;DHT22;56411;52.964;10.540;2023-04-03T07:21:01;1.80;99.90
16102;DHT22;56411;52.964;10.540;2023-04-03T07:23:28;1.90;99.90
16102;DHT22;56411;52.964;10.540;2023-04-03T07:25:55;2.00;99.90
16102;DHT22;56411;52.964;10.540;2023-04-03T07:28:23;2.10;99.90
16102;DHT22;56411;52.964;10.540;2023-04-03T07:30:52;2.10;99.90
16102;DHT22;56411;52.964;10.540;2023-04-03T07:33:22;2.20;99.90
16102;DHT22;56411;52.964;10.540;2023-04-03T07:35:49;2.30;99.90
16102;DHT22;56411;52.964;10.540;2023-04-03T07:38:18;2.40;99.90
16102;DHT22;56411;52.964;10.540;2023-04-03T07:40:46;2.50;99.90
16102;DHT22;56411;52.964;10.540;2023-04-03T07:43:14;2.60;99.90
16102;DHT22;56411;52.964;10.540;2023-04-03T07:45:41;2.60;99.90
16102;DHT22;56411;52.964;10.540;2023-04-03T07:48:10;2.60;99.90
16102;DHT22;56411;52.964;10.540;2023-04-03T07:50:39;2.70;99.90
16102;DHT22;56411;52.964;10.540;2023-04-03T07:53:09;2.70;99.90
16102;DHT22;56411;52.964;10.540;2023-04-03T07:55:45;2.80;99.90
16102;DHT22;56411;52.964;10.540;2023-04-03T07:58:14;2.90;99.90
16102;DHT22;56411;52.964;10.540;2023-04-03T08:00:42;3.00;99.90
16102;DHT22;56411;52.964;10.540;2023-04-03T08:03:20;3.00;99.90
16102;DHT22;56411;52.964;10.540;2023-04-03T08:05:49;3.00;99.90
16102;DHT22;56411;52.964;10.540;2023-04-03T08:08:19;3.00;99.90
16102;DHT22;56411;52.964;10.540;2023-04-03T08:12:17;3.10;99.90
16102;DHT22;56411;52.964;10.540;2023-04-03T08:14:01;3.20;99.90
16102;DHT22;56411;52.964;10.540;2023-04-03T08:16:28;3.30;99.90
16102;DHT22;56411;52.964;10.540;2023-04-03T08:18:56;3.30;99.90
16102;DHT22;56411;52.964;10.540;2023-04-03T08:21:25;3.40;99.90
16102;DHT22;56411;52.964;10.540;2023-04-03T08:24:11;3.50;99.90
16102;DHT22;56411;52.964;10.540;2023-04-03T08:26:40;3.60;99.90
16102;DHT22;56411;52.964;10.540;2023-04-03T08:29:21;3.70;99.90
16102;DHT22;56411;52.964;10.540;2023-04-03T09:20:36;4.80;99.90
16102;DHT22;56411;52.964;10.540;2023-04-03T09:41:05;5.40;99.90
16102;DHT22;56411;52.964;10.540;2023-04-03T09:43:57;5.70;99.90
16102;DHT22;56411;52.964;10.540;2023-04-03T09:50:23;6.20;99.90
16102;DHT22;56411;52.964;10.540;2023-04-03T09:53:40;6.20;99.90
16102;DHT22;56411;52.964;10.540;2023-04-03T09:56:43;6.20;99.90
16102;DHT22;56411;52.964;10.540;2023-04-03T09:59:45;6.30;99.90
16102;DHT22;56411;52.964;10.540;2023-04-03T10:02:59;6.10;99.90
16102;DHT22;56411;52.964;10.540;2023-04-03T10:05:39;5.90;99.90
16102;DHT22;56411;52.964;10.540;2023-04-03T10:09:15;5.70;99.90
16102;DHT22;56411;52.964;10.540;2023-04-03T10:15:44;5.40;99.90
16102;DHT22;56411;52.964;10.540;2023-04-03T10:18:37;5.40;99.90
16102;DHT22;56411;52.964;10.540;2023-04-03T10:28:11;6.50;99.90
16102;DHT22;56411;52.964;10.540;2023-04-03T10:31:28;7.00;99.90
16102;DHT22;56411;52.964;10.540;2023-04-03T10:34:43;7.10;99.90
16102;DHT22;56411;52.964;10.540;2023-04-03T10:37:47;7.30;99.90
16102;DHT22;56411;52.964;10.540;2023-04-03T10:41:22;7.60;99.90
16102;DHT22;56411;52.964;10.540;2023-04-03T10:44:28;7.90;99.90
16102;DHT22;56411;52.964;10.540;2023-04-03T11:04:20;6.70;99.90
16102;DHT22;56411;52.964;10.540;2023-04-03T11:07:51;6.60;99.90
16102;DHT22;56411;52.964;10.540;2023-04-03T11:11:15;6.40;99.90
16102;DHT22;56411;52.964;10.540;2023-04-03T11:14:34;6.30;99.90
16102;DHT22;56411;52.964;10.540;2023-04-03T16:28:52;7.80;97.90
16102;DHT22;56411;52.964;10.540;2023-04-03T16:31:26;7.40;99.70
16102;DHT22;56411;52.964;10.540;2023-04-03T16:34:03;7.20;99.90
16102;DHT22;56411;52.964;10.540;2023-04-03T16:36:47;7.10;99.90
16102;DHT22;56411;52.964;10.540;2023-04-03T16:39:43;7.00;99.90
16102;DHT22;56411;52.964;10.540;2023-04-03T16:42:18;7.00;99.90
16102;DHT22;56411;52.964;10.540;2023-04-03T16:44:46;6.90;99.90
16102;DHT22;56411;52.964;10.540;2023-04-03T16:47:14;6.80;99.80
16102;DHT22;56411;52.964;10.540;2023-04-03T16:49:45;6.70;99.90
16102;DHT22;56411;52.964;10.540;2023-04-03T16:52:13;6.70;99.90
16102;DHT22;56411;52.964;10.540;2023-04-03T16:54:40;6.80;99.90
16102;DHT22;56411;52.964;10.540;2023-04-03T16:57:08;6.90;99.90
16102;DHT22;56411;52.964;10.540;2023-04-03T16:59:35;6.70;99.90
16102;DHT22;56411;52.964;10.540;2023-04-03T17:02:04;6.50;99.90
16102;DHT22;56411;52.964;10.540;2023-04-03T17:04:31;6.30;99.90
16102;DHT22;56411;52.964;10.540;2023-04-03T17:07:01;6.10;99.90
16102;DHT22;56411;52.964;10.540;2023-04-03T17:09:32;6.00;99.90
16102;DHT22;56411;52.964;10.540;2023-04-03T17:12:26;5.90;99.90
16102;DHT22;56411;52.964;10.540;2023-04-03T17:14:54;5.70;99.90
16102;DHT22;56411;52.964;10.540;2023-04-03T17:17:47;5.60;99.90
16102;DHT22;56411;52.964;10.540;2023-04-03T17:20:20;5.60;99.90
16102;DHT22;56411;52.964;10.540;2023-04-03T17:23:30;5.40;99.90
16102;DHT22;56411;52.964;10.540;2023-04-03T17:26:25;5.30;99.90
16102;DHT22;56411;52.964;10.540;2023-04-03T17:29:29;5.10;99.90
16102;DHT22;56411;52.964;10.540;2023-04-03T17:32:24;5.00;99.90
16102;DHT22;56411;52.964;10.540;2023-04-03T17:35:12;4.90;99.90
16102;DHT22;56411;52.964;10.540;2023-04-03T17:37:57;4.70;99.90
16102;DHT22;56411;52.964;10.540;2023-04-03T17:41:12;4.60;99.90
16102;DHT22;56411;52.964;10.540;2023-04-03T17:46:43;4.40;99.90
16102;DHT22;56411;52.964;10.540;2023-04-03T17:50:44;4.20;99.90
16102;DHT22;56411;52.964;10.540;2023-04-03T18:00:15;3.80;99.90
16102;DHT22;56411;52.964;10.540;2023-04-03T18:03:14;3.70;99.90
16102;DHT22;56411;52.964;10.540;2023-04-03T18:12:21;3.50;99.90
16102;DHT22;56411;52.964;10.540;2023-04-03T18:14:50;3.40;99.90
16102;DHT22;56411;52.964;10.540;2023-04-03T18:17:18;3.30;99.90
16102;DHT22;56411;52.964;10.540;2023-04-03T18:19:48;3.20;99.90
16102;DHT22;56411;52.964;10.540;2023-04-03T18:22:20;3.20;99.90
16102;DHT22;56411;52.964;10.540;2023-04-03T18:24:49;3.20;99.90
16102;DHT22;56411;52.964;10.540;2023-04-03T18:27:18;3.10;99.90
16102;DHT22;56411;52.964;10.540;2023-04-03T18:29:49;3.00;99.90
16102;DHT22;56411;52.964;10.540;2023-04-03T18:32:19;2.90;99.90
16102;DHT22;56411;52.964;10.540;2023-04-03T18:34:46;2.80;99.90
16102;DHT22;56411;52.964;10.540;2023-04-03T18:37:13;2.80;99.90
16102;DHT22;56411;52.964;10.540;2023-04-03T18:39:43;2.80;99.90
16102;DHT22;56411;52.964;10.540;2023-04-03T18:42:12;2.70;99.90
16102;DHT22;56411;52.964;10.540;2023-04-03T18:44:42;2.60;99.90
16102;DHT22;56411;52.964;10.540;2023-04-03T18:47:11;2.60;99.90
16102;DHT22;56411;52.964;10.540;2023-04-03T18:49:39;2.50;99.90
16102;DHT22;56411;52.964;10.540;2023-04-03T18:52:09;2.50;99.90
16102;DHT22;56411;52.964;10.540;2023-04-03T18:54:36;2.40;99.90
16102;DHT22;56411;52.964;10.540;2023-04-03T18:57:17;2.30;99.90
16102;DHT22;56411;52.964;10.540;2023-04-03T18:59:50;2.40;99.90
16102;DHT22;56411;52.964;10.540;2023-04-03T19:02:39;2.30;99.90
16102;DHT22;56411;52.964;10.540;2023-04-03T19:05:13;2.30;99.90
16102;DHT22;56411;52.964;10.540;2023-04-03T19:07:47;2.30;99.90
16102;DHT22;56411;52.964;10.540;2023-04-03T19:10:16;2.20;99.90
16102;DHT22;56411;52.964;10.540;2023-04-03T19:12:48;2.20;99.90
16102;DHT22;56411;52.964;10.540;2023-04-03T19:15:18;2.10;99.90
16102;DHT22;56411;52.964;10.540;2023-04-03T19:17:45;2.10;99.90
16102;DHT22;56411;52.964;10.540;2023-04-03T19:20:13;2.00;99.90
16102;DHT22;56411;52.964;10.540;2023-04-03T19:22:40;2.00;99.90
16102;DHT22;56411;52.964;10.540;2023-04-03T19:25:08;1.90;99.90
16102;DHT22;56411;52.964;10.540;2023-04-03T19:27:36;1.80;99.90
16102;DHT22;56411;52.964;10.540;2023-04-03T19:30:06;1.70;99.90
16102;DHT22;56411;52.964;10.540;2023-04-03T19:32:34;1.60;99.90
16102;DHT22;56411;52.964;10.540;2023-04-03T19:35:01;1.70;99.90
16102;DHT22;56411;52.964;10.540;2023-04-03T19:37:29;1.60;99.90
16102;DHT22;56411;52.964;10.540;2023-04-03T19:39:59;1.50;99.90
16102;DHT22;56411;52.964;10.540;2023-04-03T19:42:27;1.50;99.90
16102;DHT22;56411;52.964;10.540;2023-04-03T19:44:56;1.40;99.90
16102;DHT22;56411;52.964;10.540;2023-04-03T19:47:25;1.30;99.90
16102;DHT22;56411;52.964;10.540;2023-04-03T19:49:54;1.30;99.90
16102;DHT22;56411;52.964;10.540;2023-04-03T19:52:21;1.30;99.90
16102;DHT22;56411;52.964;10.540;2023-04-03T19:54:48;1.30;99.90
16102;DHT22;56411;52.964;10.540;2023-04-03T19:57:15;1.30;99.90
16102;DHT22;56411;52.964;10.540;2023-04-03T19:59:42;1.20;99.90
16102;DHT22;56411;52.964;10.540;2023-04-03T20:02:09;1.20;99.90
16102;DHT22;56411;52.964;10.540;2023-04-03T20:04:38;1.20;99.90
16102;DHT22;56411;52.964;10.540;2023-04-03T20:07:06;1.20;99.90
16102;DHT22;56411;52.964;10.540;2023-04-03T20:09:33;1.10;99.90
16102;DHT22;56411;52.964;10.540;2023-04-03T20:12:00;1.10;99.90
16102;DHT22;56411;52.964;10.540;2023-04-03T20:14:28;1.10;99.90
16102;DHT22;56411;52.964;10.540;2023-04-03T20:16:55;1.10;99.90
16102;DHT22;56411;52.964;10.540;2023-04-03T20:19:23;1.00;99.90
16102;DHT22;56411;52.964;10.540;2023-04-03T20:21:52;0.90;99.90
16102;DHT22;56411;52.964;10.540;2023-04-03T20:24:20;1.00;99.90
16102;DHT22;56411;52.964;10.540;2023-04-03T20:26:47;0.90;99.90
16102;DHT22;56411;52.964;10.540;2023-04-03T20:29:17;0.90;99.90
16102;DHT22;56411;52.964;10.540;2023-04-03T20:31:45;0.90;99.90
16102;DHT22;56411;52.964;10.540;2023-04-03T20:34:14;0.90;99.90
16102;DHT22;56411;52.964;10.540;2023-04-03T20:36:42;0.70;99.90
16102;DHT22;56411;52.964;10.540;2023-04-03T20:39:13;0.60;99.90
16102;DHT22;56411;52.964;10.540;2023-04-03T20:41:41;0.50;99.90
16102;DHT22;56411;52.964;10.540;2023-04-03T20:44:08;0.40;99.90
16102;DHT22;56411;52.964;10.540;2023-04-03T20:46:35;0.40;99.90
16102;DHT22;56411;52.964;10.540;2023-04-03T20:49:02;0.30;99.90
16102;DHT22;56411;52.964;10.540;2023-04-03T20:51:29;0.20;99.90
16102;DHT22;56411;52.964;10.540;2023-04-03T20:53:56;0.10;99.90
16102;DHT22;56411;52.964;10.540;2023-04-03T20:56:28;0.00;99.90
16102;DHT22;56411;52.964;10.540;2023-04-03T20:58:57;-0.10;99.90
16102;DHT22;56411;52.964;10.540;2023-04-03T21:01:26;-0.30;99.90
16102;DHT22;56411;52.964;10.540;2023-04-03T21:03:54;-0.40;99.90
16102;DHT22;56411;52.964;10.540;2023-04-03T21:21:28;-0.80;99.90
16102;DHT22;56411;52.964;10.540;2023-04-03T21:23:56;-0.90;99.90
16102;DHT22;56411;52.964;10.540;2023-04-03T21:26:25;-0.90;99.90
16102;DHT22;56411;52.964;10.540;2023-04-03T21:28:53;-1.00;99.90
16102;DHT22;56411;52.964;10.540;2023-04-03T21:31:20;-1.00;99.90
16102;DHT22;56411;52.964;10.540;2023-04-03T21:33:47;-1.10;99.90
16102;DHT22;56411;52.964;10.540;2023-04-03T21:36:16;-1.20;99.90
16102;DHT22;56411;52.964;10.540;2023-04-03T21:38:43;-1.20;99.90
16102;DHT22;56411;52.964;10.540;2023-04-03T21:41:14;-1.20;99.90
16102;DHT22;56411;52.964;10.540;2023-04-03T21:43:41;-1.10;99.90
16102;DHT22;56411;52.964;10.540;2023-04-03T21:46:10;-1.00;99.90
16102;DHT22;56411;52.964;10.540;2023-04-03T21:48:38;-1.10;99.90
16102;DHT22;56411;52.964;10.540;2023-04-03T21:51:05;-1.00;99.90
16102;DHT22;56411;52.964;10.540;2023-04-03T21:53:37;-1.10;99.90
16102;DHT22;56411;52.964;10.540;2023-04-03T21:56:04;-1.10;99.90
16102;DHT22;56411;52.964;10.540;2023-04-03T21:58:32;-1.20;99.90
16102;DHT22;56411;52.964;10.540;2023-04-03T22:01:07;-1.30;99.90
16102;DHT22;56411;52.964;10.540;2023-04-03T22:03:35;-1.40;99.90
16102;DHT22;56411;52.964;10.540;2023-04-03T22:06:02;-1.50;99.90
16102;DHT22;56411;52.964;10.540;2023-04-03T22:08:29;-1.50;99.90
16102;DHT22;56411;52.964;10.540;2023-04-03T22:11:00;-1.60;99.90
16102;DHT22;56411;52.964;10.540;2023-04-03T22:13:28;-1.60;99.90
16102;DHT22;56411;52.964;10.540;2023-04-03T22:15:55;-1.70;99.90
16102;DHT22;56411;52.964;10.540;2023-04-03T22:18:24;-1.80;99.90
16102;DHT22;56411;52.964;10.540;2023-04-03T22:20:51;-1.80;99.90
16102;DHT22;56411;52.964;10.540;2023-04-03T22:23:19;-1.90;99.90
16102;DHT22;56411;52.964;10.540;2023-04-03T22:25:56;-1.90;99.90
16102;DHT22;56411;52.964;10.540;2023-04-03T22:28:25;-1.80;99.90
16102;DHT22;56411;52.964;10.540;2023-04-03T22:30:55;-1.70;99.90
16102;DHT22;56411;52.964;10.540;2023-04-03T22:33:22;-1.50;99.90
16102;DHT22;56411;52.964;10.540;2023-04-03T22:35:50;-1.50;99.90
16102;DHT22;56411;52.964;10.540;2023-04-03T22:38:20;-1.40;99.90
16102;DHT22;56411;52.964;10.540;2023-04-03T22:40:55;-1.40;99.90
16102;DHT22;56411;52.964;10.540;2023-04-03T22:43:22;-1.30;99.90
16102;DHT22;56411;52.964;10.540;2023-04-03T22:45:51;-1.30;99.90
16102;DHT22;56411;52.964;10.540;2023-04-03T22:48:18;-1.60;99.90
16102;DHT22;56411;52.964;10.540;2023-04-03T22:50:45;-1.70;99.90
16102;DHT22;56411;52.964;10.540;2023-04-03T22:53:13;-1.90;99.90
16102;DHT22;56411;52.964;10.540;2023-04-03T22:55:40;-2.10;99.90
16102;DHT22;56411;52.964;10.540;2023-04-03T22:58:07;-2.20;99.90
16102;DHT22;56411;52.964;10.540;2023-04-03T23:00:34;-2.30;99.90
16102;DHT22;56411;52.964;10.540;2023-04-03T23:03:03;-2.40;99.90
16102;DHT22;56411;52.964;10.540;2023-04-03T23:05:30;-2.50;99.90
16102;DHT22;56411;52.964;10.540;2023-04-03T23:07:57;-2.60;99.90
16102;DHT22;56411;52.964;10.540;2023-04-03T23:10:24;-2.60;99.90
16102;DHT22;56411;52.964;10.540;2023-04-03T23:12:53;-2.60;99.90
16102;DHT22;56411;52.964;10.540;2023-04-03T23:15:20;-2.50;99.90
16102;DHT22;56411;52.964;10.540;2023-04-03T23:17:47;-2.50;99.90
16102;DHT22;56411;52.964;10.540;2023-04-03T23:20:17;-2.30;99.90